sensor_id;sensor_type;location;lat;lon;timestamp;temperature;humidity
5041;DHT22;2539;52.568;13.364;2023-02-20T00:01:37;2.80;99.90
5041;DHT22;2539;52.568;13.364;2023-02-20T00:04:04;2.80;99.90
5041;DHT22;2539;52.568;13.364;2023-02-20T00:06:30;2.80;99.90
5041;DHT22;2539;52.568;13.364;2023-02-20T00:08:56;2.80;99.90
5041;DHT22;2539;52.568;13.364;2023-02-20T00:11:22;2.80;99.90
5041;DHT22;2539;52.568;13.364;2023-02-20T00:13:49;2.80;99.90
5041;DHT22;2539;52.568;13.364;2023-02-20T00:16:15;2.80;99.90
5041;DHT22;2539;52.568;13.364;2023-02-20T00:18:43;2.80;99.90
5041;DHT22;2539;52.568;13.364;2023-02-20T00:21:09;2.80;99.90
5041;DHT22;2539;52.568;13.364;2023-02-20T00:23:35;2.80;99.90
5041;DHT22;2539;52.568;13.364;2023-02-20T00:26:02;2.90;99.90
5041;DHT22;2539;52.568;13.364;2023-02-20T00:28:28;2.80;99.90
5041;DHT22;2539;52.568;13.364;2023-02-20T00:30:55;2.90;99.90
5041;DHT22;2539;52.568;13.364;2023-02-20T00:33:21;2.80;99.90
5041;DHT22;2539;52.568;13.364;2023-02-20T00:35:47;2.70;99.90
5041;DHT22;2539;52.568;13.364;2023-02-20T00:38:14;2.70;99.90
5041;DHT22;2539;52.568;13.364;2023-02-20T00:40:41;2.70;99.90
5041;DHT22;2539;52.568;13.364;2023-02-20T00:43:08;2.70;99.90
5041;DHT22;2539;52.568;13.364;2023-02-20T00:45:34;2.70;99.90
5041;DHT22;2539;52.568;13.364;2023-02-20T00:48:00;2.70;99.90
5041;DHT22;2539;52.568;13.364;2023-02-20T00:50:26;2.70;99.90
5041;DHT22;2539;52.568;13.364;2023-02-20T00:52:53;2.80;99.90
5041;DHT22;2539;52.568;13.364;2023-02-20T00:55:19;2.70;99.90
5041;DHT22;2539;52.568;13.364;2023-02-20T00:57:46;2.80;99.90
5041;DHT22;2539;52.568;13.364;2023-02-20T01:00:21;2.80;99.90
5041;DHT22;2539;52.568;13.364;2023-02-20T01:02:47;2.80;99.90
5041;DHT22;2539;52.568;13.364;2023-02-20T01:05:13;2.80;99.90
5041;DHT22;2539;52.568;13.364;2023-02-20T01:07:40;2.80;99.90
5041;DHT22;2539;52.568;13.364;2023-02-20T01:10:06;2.90;99.90
5041;DHT22;2539;52.568;13.364;2023-02-20T01:12:33;3.00;99.90
5041;DHT22;2539;52.568;13.364;2023-02-20T01:14:58;3.10;99.90
5041;DHT22;2539;52.568;13.364;2023-02-20T01:17:24;3.20;99.90
5041;DHT22;2539;52.568;13.364;2023-02-20T01:19:50;3.20;99.90
5041;DHT22;2539;52.568;13.364;2023-02-20T01:22:15;3.30;99.90
5041;DHT22;2539;52.568;13.364;2023-02-20T01:24:42;3.30;99.90
5041;DHT22;2539;52.568;13.364;2023-02-20T01:27:09;3.40;99.90
5041;DHT22;2539;52.568;13.364;2023-02-20T01:29:35;3.40;99.90
5041;DHT22;2539;52.568;13.364;2023-02-20T01:32:01;3.40;99.90
5041;DHT22;2539;52.568;13.364;2023-02-20T01:34:28;3.50;99.90
5041;DHT22;2539;52.568;13.364;2023-02-20T01:36:55;3.50;99.90
5041;DHT22;2539;52.568;13.364;2023-02-20T01:39:26;3.50;99.90
5041;DHT22;2539;52.568;13.364;2023-02-20T01:41:58;3.60;99.90
5041;DHT22;2539;52.568;13.364;2023-02-20T01:44:28;3.60;99.90
5041;DHT22;2539;52.568;13.364;2023-02-20T01:46:56;3.60;99.90
5041;DHT22;2539;52.568;13.364;2023-02-20T01:49:33;3.60;99.90
5041;DHT22;2539;52.568;13.364;2023-02-20T01:52:16;3.70;99.90
5041;DHT22;2539;52.568;13.364;2023-02-20T01:54:46;3.70;99.90
5041;DHT22;2539;52.568;13.364;2023-02-20T01:57:17;3.70;99.90
5041;DHT22;2539;52.568;13.364;2023-02-20T01:59:45;3.70;99.90
5041;DHT22;2539;52.568;13.364;2023-02-20T02:02:11;3.70;99.90
5041;DHT22;2539;52.568;13.364;2023-02-20T02:04:37;3.70;99.90
5041;DHT22;2539;52.568;13.364;2023-02-20T02:07:04;3.60;99.90
5041;DHT22;2539;52.568;13.364;2023-02-20T02:09:43;3.70;99.90
5041;DHT22;2539;52.568;13.364;2023-02-20T02:12:12;3.80;99.90
5041;DHT22;2539;52.568;13.364;2023-02-20T02:14:39;3.80;99.90
5041;DHT22;2539;52.568;13.364;2023-02-20T02:17:31;3.90;99.90
5041;DHT22;2539;52.568;13.364;2023-02-20T02:23:20;4.00;99.90
5041;DHT22;2539;52.568;13.364;2023-02-20T02:26:09;4.00;99.90
5041;DHT22;2539;52.568;13.364;2023-02-20T02:29:14;4.10;99.90
5041;DHT22;2539;52.568;13.364;2023-02-20T02:32:04;4.10;99.90
5041;DHT22;2539;52.568;13.364;2023-02-20T02:41:21;4.20;99.90
5041;DHT22;2539;52.568;13.364;2023-02-20T02:44:00;4.20;99.90
5041;DHT22;2539;52.568;13.364;2023-02-20T02:46:38;4.20;99.90
5041;DHT22;2539;52.568;13.364;2023-02-20T02:49:11;4.30;99.90
5041;DHT22;2539;52.568;13.364;2023-02-20T02:51:40;4.40;99.90
5041;DHT22;2539;52.568;13.364;2023-02-20T02:54:15;4.30;99.90
5041;DHT22;2539;52.568;13.364;2023-02-20T02:56:45;4.20;99.90
5041;DHT22;2539;52.568;13.364;2023-02-20T02:59:30;4.30;99.90
5041;DHT22;2539;52.568;13.364;2023-02-20T03:02:00;4.30;99.90
5041;DHT22;2539;52.568;13.364;2023-02-20T03:04:30;4.30;99.90
5041;DHT22;2539;52.568;13.364;2023-02-20T03:07:10;4.30;99.90
5041;DHT22;2539;52.568;13.364;2023-02-20T03:09:51;4.30;99.90
5041;DHT22;2539;52.568;13.364;2023-02-20T03:12:20;4.40;99.90
5041;DHT22;2539;52.568;13.364;2023-02-20T03:14:53;4.40;99.90
5041;DHT22;2539;52.568;13.364;2023-02-20T03:17:56;4.40;99.90
5041;DHT22;2539;52.568;13.364;2023-02-20T03:20:25;4.40;99.90
5041;DHT22;2539;52.568;13.364;2023-02-20T03:22:56;4.50;99.90
5041;DHT22;2539;52.568;13.364;2023-02-20T03:25:34;4.50;99.90
5041;DHT22;2539;52.568;13.364;2023-02-20T03:28:15;4.50;99.90
5041;DHT22;2539;52.568;13.364;2023-02-20T03:33:21;4.50;99.90
5041;DHT22;2539;52.568;13.364;2023-02-20T03:36:10;4.60;99.90
5041;DHT22;2539;52.568;13.364;2023-02-20T03:39:07;4.60;99.90
5041;DHT22;2539;52.568;13.364;2023-02-20T03:41:55;4.70;99.90
5041;DHT22;2539;52.568;13.364;2023-02-20T03:44:41;4.70;99.90
5041;DHT22;2539;52.568;13.364;2023-02-20T03:47:09;4.70;99.90
5041;DHT22;2539;52.568;13.364;2023-02-20T03:49:40;4.70;99.90
5041;DHT22;2539;52.568;13.364;2023-02-20T03:52:08;4.70;99.90
5041;DHT22;2539;52.568;13.364;2023-02-20T03:54:35;4.70;99.90
5041;DHT22;2539;52.568;13.364;2023-02-20T03:57:23;4.70;99.90
5041;DHT22;2539;52.568;13.364;2023-02-20T04:02:32;4.80;99.90
5041;DHT22;2539;52.568;13.364;2023-02-20T04:05:03;4.90;99.90
5041;DHT22;2539;52.568;13.364;2023-02-20T04:07:35;4.80;99.90
5041;DHT22;2539;52.568;13.364;2023-02-20T04:10:05;4.80;99.90
5041;DHT22;2539;52.568;13.364;2023-02-20T04:12:36;4.80;99.90
5041;DHT22;2539;52.568;13.364;2023-02-20T04:15:04;4.80;99.90
5041;DHT22;2539;52.568;13.364;2023-02-20T04:17:38;4.80;99.90
5041;DHT22;2539;52.568;13.364;2023-02-20T04:20:05;4.90;99.90
5041;DHT22;2539;52.568;13.364;2023-02-20T04:22:35;4.90;99.90
5041;DHT22;2539;52.568;13.364;2023-02-20T04:25:26;4.90;99.90
5041;DHT22;2539;52.568;13.364;2023-02-20T04:27:56;4.90;99.90
5041;DHT22;2539;52.568;13.364;2023-02-20T04:30:22;4.90;99.90
5041;DHT22;2539;52.568;13.364;2023-02-20T04:32:49;5.00;99.90
5041;DHT22;2539;52.568;13.364;2023-02-20T04:35:17;4.90;99.90
5041;DHT22;2539;52.568;13.364;2023-02-20T04:37:45;4.90;99.90
5041;DHT22;2539;52.568;13.364;2023-02-20T04:40:11;5.00;99.90
5041;DHT22;2539;52.568;13.364;2023-02-20T04:42:37;5.00;99.90
5041;DHT22;2539;52.568;13.364;2023-02-20T04:45:03;5.00;99.90
5041;DHT22;2539;52.568;13.364;2023-02-20T04:47:29;5.00;99.90
5041;DHT22;2539;52.568;13.364;2023-02-20T04:49:55;5.10;99.90
5041;DHT22;2539;52.568;13.364;2023-02-20T04:52:21;5.10;99.90
5041;DHT22;2539;52.568;13.364;2023-02-20T04:54:50;5.10;99.90
5041;DHT22;2539;52.568;13.364;2023-02-20T04:57:17;5.10;99.90
5041;DHT22;2539;52.568;13.364;2023-02-20T04:59:44;5.20;99.90
5041;DHT22;2539;52.568;13.364;2023-02-20T05:02:10;5.10;99.90
5041;DHT22;2539;52.568;13.364;2023-02-20T05:04:37;5.20;99.90
5041;DHT22;2539;52.568;13.364;2023-02-20T05:07:03;5.20;99.90
5041;DHT22;2539;52.568;13.364;2023-02-20T05:09:30;5.20;99.90
5041;DHT22;2539;52.568;13.364;2023-02-20T05:11:56;5.30;99.90
5041;DHT22;2539;52.568;13.364;2023-02-20T05:14:23;5.30;99.90
5041;DHT22;2539;52.568;13.364;2023-02-20T05:16:49;5.30;99.90
5041;DHT22;2539;52.568;13.364;2023-02-20T05:19:16;5.30;99.90
5041;DHT22;2539;52.568;13.364;2023-02-20T05:21:44;5.10;99.90
5041;DHT22;2539;52.568;13.364;2023-02-20T05:24:29;5.40;99.90
5041;DHT22;2539;52.568;13.364;2023-02-20T05:26:57;5.30;99.90
5041;DHT22;2539;52.568;13.364;2023-02-20T05:29:24;4.90;99.90
5041;DHT22;2539;52.568;13.364;2023-02-20T05:31:50;5.40;99.90
5041;DHT22;2539;52.568;13.364;2023-02-20T05:34:16;5.40;99.90
5041;DHT22;2539;52.568;13.364;2023-02-20T05:36:43;5.40;99.90
5041;DHT22;2539;52.568;13.364;2023-02-20T05:39:09;5.30;99.90
5041;DHT22;2539;52.568;13.364;2023-02-20T05:41:35;5.50;99.90
5041;DHT22;2539;52.568;13.364;2023-02-20T05:44:01;5.50;99.90
5041;DHT22;2539;52.568;13.364;2023-02-20T05:46:27;5.50;99.90
5041;DHT22;2539;52.568;13.364;2023-02-20T05:48:53;5.50;99.90
5041;DHT22;2539;52.568;13.364;2023-02-20T05:51:29;5.50;99.90
5041;DHT22;2539;52.568;13.364;2023-02-20T05:53:55;5.50;99.90
5041;DHT22;2539;52.568;13.364;2023-02-20T05:56:22;5.50;99.90
5041;DHT22;2539;52.568;13.364;2023-02-20T05:58:48;5.50;99.90
5041;DHT22;2539;52.568;13.364;2023-02-20T06:01:23;5.50;99.90
5041;DHT22;2539;52.568;13.364;2023-02-20T06:03:50;5.50;99.90
5041;DHT22;2539;52.568;13.364;2023-02-20T06:06:17;5.50;99.90
5041;DHT22;2539;52.568;13.364;2023-02-20T06:08:44;5.50;99.90
5041;DHT22;2539;52.568;13.364;2023-02-20T06:11:11;4.70;99.90
5041;DHT22;2539;52.568;13.364;2023-02-20T06:13:40;5.50;99.90
5041;DHT22;2539;52.568;13.364;2023-02-20T06:16:07;5.50;99.90
5041;DHT22;2539;52.568;13.364;2023-02-20T06:18:37;5.60;99.90
5041;DHT22;2539;52.568;13.364;2023-02-20T06:21:06;5.60;99.90
5041;DHT22;2539;52.568;13.364;2023-02-20T06:23:32;5.60;99.90
5041;DHT22;2539;52.568;13.364;2023-02-20T06:25:57;5.60;99.90
5041;DHT22;2539;52.568;13.364;2023-02-20T06:28:23;5.60;99.90
5041;DHT22;2539;52.568;13.364;2023-02-20T06:30:49;5.70;99.90
5041;DHT22;2539;52.568;13.364;2023-02-20T06:33:16;5.70;99.90
5041;DHT22;2539;52.568;13.364;2023-02-20T06:35:42;5.70;99.90
5041;DHT22;2539;52.568;13.364;2023-02-20T06:38:09;5.70;99.90
5041;DHT22;2539;52.568;13.364;2023-02-20T06:40:35;5.70;99.90
5041;DHT22;2539;52.568;13.364;2023-02-20T06:43:01;5.70;99.90
5041;DHT22;2539;52.568;13.364;2023-02-20T06:45:28;5.80;99.90
5041;DHT22;2539;52.568;13.364;2023-02-20T06:47:54;5.80;99.90
5041;DHT22;2539;52.568;13.364;2023-02-20T06:50:21;5.70;99.90
5041;DHT22;2539;52.568;13.364;2023-02-20T06:52:47;5.80;99.90
5041;DHT22;2539;52.568;13.364;2023-02-20T06:55:14;5.80;99.90
5041;DHT22;2539;52.568;13.364;2023-02-20T06:57:40;5.80;99.90
5041;DHT22;2539;52.568;13.364;2023-02-20T07:00:07;5.90;99.90
5041;DHT22;2539;52.568;13.364;2023-02-20T07:02:33;5.90;99.90
5041;DHT22;2539;52.568;13.364;2023-02-20T07:05:03;5.90;99.90
5041;DHT22;2539;52.568;13.364;2023-02-20T07:07:30;5.90;99.90
5041;DHT22;2539;52.568;13.364;2023-02-20T07:09:55;5.90;99.90
5041;DHT22;2539;52.568;13.364;2023-02-20T07:12:21;5.90;99.90
5041;DHT22;2539;52.568;13.364;2023-02-20T07:14:50;6.00;99.90
5041;DHT22;2539;52.568;13.364;2023-02-20T07:17:15;6.00;99.90
5041;DHT22;2539;52.568;13.364;2023-02-20T07:19:42;7.40;99.90
5041;DHT22;2539;52.568;13.364;2023-02-20T07:22:08;6.10;99.90
5041;DHT22;2539;52.568;13.364;2023-02-20T07:24:34;6.20;99.90
5041;DHT22;2539;52.568;13.364;2023-02-20T07:27:02;6.20;99.90
5041;DHT22;2539;52.568;13.364;2023-02-20T07:29:28;6.20;99.90
5041;DHT22;2539;52.568;13.364;2023-02-20T07:31:54;6.30;99.90
5041;DHT22;2539;52.568;13.364;2023-02-20T07:34:21;6.50;99.90
5041;DHT22;2539;52.568;13.364;2023-02-20T07:36:47;6.40;99.90
5041;DHT22;2539;52.568;13.364;2023-02-20T07:39:13;6.40;99.90
5041;DHT22;2539;52.568;13.364;2023-02-20T07:41:40;6.50;99.90
5041;DHT22;2539;52.568;13.364;2023-02-20T07:44:06;6.50;99.90
5041;DHT22;2539;52.568;13.364;2023-02-20T07:46:33;6.50;99.90
5041;DHT22;2539;52.568;13.364;2023-02-20T07:49:04;6.60;99.90
5041;DHT22;2539;52.568;13.364;2023-02-20T07:51:30;6.50;99.90
5041;DHT22;2539;52.568;13.364;2023-02-20T07:53:57;6.60;99.90
5041;DHT22;2539;52.568;13.364;2023-02-20T07:56:23;6.60;99.90
5041;DHT22;2539;52.568;13.364;2023-02-20T07:58:50;6.60;99.90
5041;DHT22;2539;52.568;13.364;2023-02-20T08:01:17;6.70;99.90
5041;DHT22;2539;52.568;13.364;2023-02-20T08:03:44;6.70;99.90
5041;DHT22;2539;52.568;13.364;2023-02-20T08:06:12;6.80;99.90
5041;DHT22;2539;52.568;13.364;2023-02-20T08:08:38;6.80;99.90
5041;DHT22;2539;52.568;13.364;2023-02-20T08:11:05;6.80;99.90
5041;DHT22;2539;52.568;13.364;2023-02-20T08:13:32;6.90;99.90
5041;DHT22;2539;52.568;13.364;2023-02-20T08:15:59;6.90;99.90
5041;DHT22;2539;52.568;13.364;2023-02-20T08:18:25;7.00;99.90
5041;DHT22;2539;52.568;13.364;2023-02-20T08:20:51;7.00;99.90
5041;DHT22;2539;52.568;13.364;2023-02-20T08:23:20;7.00;99.90
5041;DHT22;2539;52.568;13.364;2023-02-20T08:25:47;7.00;99.90
5041;DHT22;2539;52.568;13.364;2023-02-20T08:28:14;7.00;99.90
5041;DHT22;2539;52.568;13.364;2023-02-20T08:30:40;7.10;99.90
5041;DHT22;2539;52.568;13.364;2023-02-20T08:33:07;7.10;99.90
5041;DHT22;2539;52.568;13.364;2023-02-20T08:35:33;7.10;99.90
5041;DHT22;2539;52.568;13.364;2023-02-20T08:38:25;7.10;99.90
5041;DHT22;2539;52.568;13.364;2023-02-20T08:40:52;7.20;99.90
5041;DHT22;2539;52.568;13.364;2023-02-20T08:43:19;7.20;99.90
5041;DHT22;2539;52.568;13.364;2023-02-20T08:45:45;7.20;99.90
5041;DHT22;2539;52.568;13.364;2023-02-20T08:48:12;7.30;99.90
5041;DHT22;2539;52.568;13.364;2023-02-20T08:50:38;7.30;99.90
5041;DHT22;2539;52.568;13.364;2023-02-20T08:53:05;7.40;99.90
5041;DHT22;2539;52.568;13.364;2023-02-20T08:55:31;7.40;99.90
5041;DHT22;2539;52.568;13.364;2023-02-20T08:57:57;7.40;99.90
5041;DHT22;2539;52.568;13.364;2023-02-20T09:00:24;7.50;99.90
5041;DHT22;2539;52.568;13.364;2023-02-20T09:02:51;7.60;99.90
5041;DHT22;2539;52.568;13.364;2023-02-20T09:05:17;7.60;99.90
5041;DHT22;2539;52.568;13.364;2023-02-20T09:07:43;7.70;99.90
5041;DHT22;2539;52.568;13.364;2023-02-20T09:10:10;7.80;99.90
5041;DHT22;2539;52.568;13.364;2023-02-20T09:12:37;7.90;99.90
5041;DHT22;2539;52.568;13.364;2023-02-20T09:15:10;8.00;99.90
5041;DHT22;2539;52.568;13.364;2023-02-20T09:17:37;7.90;99.90
5041;DHT22;2539;52.568;13.364;2023-02-20T09:20:04;8.00;99.90
5041;DHT22;2539;52.568;13.364;2023-02-20T09:22:35;8.10;99.90
5041;DHT22;2539;52.568;13.364;2023-02-20T09:25:03;8.20;99.90
5041;DHT22;2539;52.568;13.364;2023-02-20T09:27:30;8.20;99.90
5041;DHT22;2539;52.568;13.364;2023-02-20T09:29:56;8.30;99.90
5041;DHT22;2539;52.568;13.364;2023-02-20T09:32:23;8.40;99.90
5041;DHT22;2539;52.568;13.364;2023-02-20T09:34:49;8.40;99.90
5041;DHT22;2539;52.568;13.364;2023-02-20T09:37:16;8.40;99.90
5041;DHT22;2539;52.568;13.364;2023-02-20T09:39:42;8.40;99.90
5041;DHT22;2539;52.568;13.364;2023-02-20T09:45:11;8.50;99.90
5041;DHT22;2539;52.568;13.364;2023-02-20T09:50:34;8.50;99.90
5041;DHT22;2539;52.568;13.364;2023-02-20T09:55:53;8.60;99.90
5041;DHT22;2539;52.568;13.364;2023-02-20T10:01:00;8.80;99.90
5041;DHT22;2539;52.568;13.364;2023-02-20T10:03:33;8.90;99.90
5041;DHT22;2539;52.568;13.364;2023-02-20T10:06:12;9.00;99.90
5041;DHT22;2539;52.568;13.364;2023-02-20T10:08:40;9.10;99.90
5041;DHT22;2539;52.568;13.364;2023-02-20T10:11:07;9.20;99.90
5041;DHT22;2539;52.568;13.364;2023-02-20T10:13:54;9.20;99.90
5041;DHT22;2539;52.568;13.364;2023-02-20T10:16:27;9.30;99.90
5041;DHT22;2539;52.568;13.364;2023-02-20T10:21:58;9.10;99.90
5041;DHT22;2539;52.568;13.364;2023-02-20T10:24:41;9.10;99.90
5041;DHT22;2539;52.568;13.364;2023-02-20T10:27:17;9.10;99.90
5041;DHT22;2539;52.568;13.364;2023-02-20T10:29:45;9.10;99.90
5041;DHT22;2539;52.568;13.364;2023-02-20T10:32:19;9.40;99.90
5041;DHT22;2539;52.568;13.364;2023-02-20T10:35:10;9.30;99.90
5041;DHT22;2539;52.568;13.364;2023-02-20T10:37:42;9.50;99.90
5041;DHT22;2539;52.568;13.364;2023-02-20T10:40:19;9.60;99.90
5041;DHT22;2539;52.568;13.364;2023-02-20T10:42:54;9.40;99.90
5041;DHT22;2539;52.568;13.364;2023-02-20T10:45:37;9.70;99.90
5041;DHT22;2539;52.568;13.364;2023-02-20T10:48:09;9.70;99.90
5041;DHT22;2539;52.568;13.364;2023-02-20T10:51:08;9.80;99.90
5041;DHT22;2539;52.568;13.364;2023-02-20T10:53:38;9.70;99.90
5041;DHT22;2539;52.568;13.364;2023-02-20T10:56:32;9.70;99.90
5041;DHT22;2539;52.568;13.364;2023-02-20T10:59:18;9.70;99.90
5041;DHT22;2539;52.568;13.364;2023-02-20T11:01:56;9.80;99.90
5041;DHT22;2539;52.568;13.364;2023-02-20T11:04:31;9.90;99.90
5041;DHT22;2539;52.568;13.364;2023-02-20T11:07:06;9.80;99.90
5041;DHT22;2539;52.568;13.364;2023-02-20T11:09:33;9.80;99.90
5041;DHT22;2539;52.568;13.364;2023-02-20T11:12:00;9.70;99.90
5041;DHT22;2539;52.568;13.364;2023-02-20T11:14:42;9.80;99.90
5041;DHT22;2539;52.568;13.364;2023-02-20T11:17:16;9.70;99.90
5041;DHT22;2539;52.568;13.364;2023-02-20T11:19:47;9.80;99.90
5041;DHT22;2539;52.568;13.364;2023-02-20T11:22:15;9.80;99.90
5041;DHT22;2539;52.568;13.364;2023-02-20T11:24:42;9.80;99.90
5041;DHT22;2539;52.568;13.364;2023-02-20T11:27:20;9.70;99.90
5041;DHT22;2539;52.568;13.364;2023-02-20T11:29:50;9.70;99.90
5041;DHT22;2539;52.568;13.364;2023-02-20T11:37:45;9.80;99.90
5041;DHT22;2539;52.568;13.364;2023-02-20T11:40:29;9.70;99.90
5041;DHT22;2539;52.568;13.364;2023-02-20T11:45:39;9.60;99.90
5041;DHT22;2539;52.568;13.364;2023-02-20T11:48:11;9.70;99.90
5041;DHT22;2539;52.568;13.364;2023-02-20T11:50:49;9.70;99.90
5041;DHT22;2539;52.568;13.364;2023-02-20T11:53:26;9.70;99.90
5041;DHT22;2539;52.568;13.364;2023-02-20T11:56:24;9.70;99.90
5041;DHT22;2539;52.568;13.364;2023-02-20T11:58:50;9.70;99.90
5041;DHT22;2539;52.568;13.364;2023-02-20T12:01:28;9.70;99.90
5041;DHT22;2539;52.568;13.364;2023-02-20T12:03:57;9.70;99.90
5041;DHT22;2539;52.568;13.364;2023-02-20T12:06:40;9.70;99.90
5041;DHT22;2539;52.568;13.364;2023-02-20T12:09:14;9.70;99.90
5041;DHT22;2539;52.568;13.364;2023-02-20T12:11:42;9.60;99.90
5041;DHT22;2539;52.568;13.364;2023-02-20T12:14:13;9.70;99.90
5041;DHT22;2539;52.568;13.364;2023-02-20T12:22:27;9.70;99.90
5041;DHT22;2539;52.568;13.364;2023-02-20T12:30:55;9.80;99.90
5041;DHT22;2539;52.568;13.364;2023-02-20T12:33:44;9.80;99.90
5041;DHT22;2539;52.568;13.364;2023-02-20T12:36:49;9.80;99.90
5041;DHT22;2539;52.568;13.364;2023-02-20T12:39:37;9.80;99.90
5041;DHT22;2539;52.568;13.364;2023-02-20T12:44:48;9.80;99.90
5041;DHT22;2539;52.568;13.364;2023-02-20T12:47:35;9.80;99.90
5041;DHT22;2539;52.568;13.364;2023-02-20T12:50:24;9.90;99.90
5041;DHT22;2539;52.568;13.364;2023-02-20T12:53:15;9.80;99.90
5041;DHT22;2539;52.568;13.364;2023-02-20T12:58:41;9.80;99.90
5041;DHT22;2539;52.568;13.364;2023-02-20T13:01:12;9.70;99.90
5041;DHT22;2539;52.568;13.364;2023-02-20T13:03:58;9.70;99.90
5041;DHT22;2539;52.568;13.364;2023-02-20T13:09:27;9.60;99.90
5041;DHT22;2539;52.568;13.364;2023-02-20T13:12:03;9.50;99.90
5041;DHT22;2539;52.568;13.364;2023-02-20T13:14:47;9.50;99.90
5041;DHT22;2539;52.568;13.364;2023-02-20T13:20:24;9.20;99.90
5041;DHT22;2539;52.568;13.364;2023-02-20T13:23:24;9.20;99.90
5041;DHT22;2539;52.568;13.364;2023-02-20T13:25:52;9.60;99.90
5041;DHT22;2539;52.568;13.364;2023-02-20T13:28:37;9.20;99.90
5041;DHT22;2539;52.568;13.364;2023-02-20T13:33:37;9.00;99.90
5041;DHT22;2539;52.568;13.364;2023-02-20T13:36:04;8.90;99.90
5041;DHT22;2539;52.568;13.364;2023-02-20T13:38:31;8.90;99.90
5041;DHT22;2539;52.568;13.364;2023-02-20T13:41:06;8.90;99.90
5041;DHT22;2539;52.568;13.364;2023-02-20T13:43:35;8.90;99.90
5041;DHT22;2539;52.568;13.364;2023-02-20T13:53:43;8.80;99.90
5041;DHT22;2539;52.568;13.364;2023-02-20T13:56:21;8.90;99.90
5041;DHT22;2539;52.568;13.364;2023-02-20T13:58:49;9.00;99.90
5041;DHT22;2539;52.568;13.364;2023-02-20T14:01:16;9.00;99.90
5041;DHT22;2539;52.568;13.364;2023-02-20T14:03:42;9.00;99.90
5041;DHT22;2539;52.568;13.364;2023-02-20T14:06:13;9.00;99.90
5041;DHT22;2539;52.568;13.364;2023-02-20T14:08:43;8.90;99.90
5041;DHT22;2539;52.568;13.364;2023-02-20T14:11:15;9.00;99.90
5041;DHT22;2539;52.568;13.364;2023-02-20T14:13:49;9.00;99.90
5041;DHT22;2539;52.568;13.364;2023-02-20T14:16:33;9.10;99.90
5041;DHT22;2539;52.568;13.364;2023-02-20T14:19:13;9.00;99.90
5041;DHT22;2539;52.568;13.364;2023-02-20T14:21:40;9.00;99.90
5041;DHT22;2539;52.568;13.364;2023-02-20T14:24:23;9.00;99.90
5041;DHT22;2539;52.568;13.364;2023-02-20T14:26:50;9.00;99.90
5041;DHT22;2539;52.568;13.364;2023-02-20T14:31:54;9.00;99.90
5041;DHT22;2539;52.568;13.364;2023-02-20T14:37:15;9.00;99.90
5041;DHT22;2539;52.568;13.364;2023-02-20T14:39:52;9.10;99.90
5041;DHT22;2539;52.568;13.364;2023-02-20T14:42:23;9.00;99.90
5041;DHT22;2539;52.568;13.364;2023-02-20T14:45:04;9.10;99.90
5041;DHT22;2539;52.568;13.364;2023-02-20T14:47:31;9.20;99.90
5041;DHT22;2539;52.568;13.364;2023-02-20T14:50:14;9.10;99.90
5041;DHT22;2539;52.568;13.364;2023-02-20T14:52:41;9.20;99.90
5041;DHT22;2539;52.568;13.364;2023-02-20T14:55:15;9.30;99.90
5041;DHT22;2539;52.568;13.364;2023-02-20T14:57:41;9.20;99.90
5041;DHT22;2539;52.568;13.364;2023-02-20T15:00:24;9.20;99.90
5041;DHT22;2539;52.568;13.364;2023-02-20T15:02:53;9.30;99.90
5041;DHT22;2539;52.568;13.364;2023-02-20T15:05:31;9.30;99.90
5041;DHT22;2539;52.568;13.364;2023-02-20T15:10:44;9.30;99.90
5041;DHT22;2539;52.568;13.364;2023-02-20T15:13:19;9.30;99.90
5041;DHT22;2539;52.568;13.364;2023-02-20T15:15:49;9.40;99.90
5041;DHT22;2539;52.568;13.364;2023-02-20T15:18:37;9.40;99.90
5041;DHT22;2539;52.568;13.364;2023-02-20T15:21:04;9.40;99.90
5041;DHT22;2539;52.568;13.364;2023-02-20T15:23:36;9.40;99.90
5041;DHT22;2539;52.568;13.364;2023-02-20T15:26:28;9.40;99.90
5041;DHT22;2539;52.568;13.364;2023-02-20T15:31:44;9.40;99.90
5041;DHT22;2539;52.568;13.364;2023-02-20T15:34:17;9.40;99.90
5041;DHT22;2539;52.568;13.364;2023-02-20T15:36:44;9.40;99.90
5041;DHT22;2539;52.568;13.364;2023-02-20T15:39:10;9.40;99.90
5041;DHT22;2539;52.568;13.364;2023-02-20T15:41:37;9.40;99.90
5041;DHT22;2539;52.568;13.364;2023-02-20T15:44:04;9.30;99.90
5041;DHT22;2539;52.568;13.364;2023-02-20T15:46:30;9.40;99.90
5041;DHT22;2539;52.568;13.364;2023-02-20T15:48:57;9.30;99.90
5041;DHT22;2539;52.568;13.364;2023-02-20T15:51:24;9.40;99.90
5041;DHT22;2539;52.568;13.364;2023-02-20T15:53:52;9.40;99.90
5041;DHT22;2539;52.568;13.364;2023-02-20T15:56:19;9.30;99.90
5041;DHT22;2539;52.568;13.364;2023-02-20T15:58:46;9.30;99.90
5041;DHT22;2539;52.568;13.364;2023-02-20T16:01:13;9.40;99.90
5041;DHT22;2539;52.568;13.364;2023-02-20T16:03:39;9.30;99.90
5041;DHT22;2539;52.568;13.364;2023-02-20T16:06:05;9.30;99.90
5041;DHT22;2539;52.568;13.364;2023-02-20T16:08:31;9.30;99.90
5041;DHT22;2539;52.568;13.364;2023-02-20T16:10:58;9.30;99.90
5041;DHT22;2539;52.568;13.364;2023-02-20T16:13:34;9.30;99.90
5041;DHT22;2539;52.568;13.364;2023-02-20T16:16:34;9.30;99.90
5041;DHT22;2539;52.568;13.364;2023-02-20T16:19:05;9.20;99.90
5041;DHT22;2539;52.568;13.364;2023-02-20T16:21:35;9.20;99.90
5041;DHT22;2539;52.568;13.364;2023-02-20T16:24:01;9.20;99.90
5041;DHT22;2539;52.568;13.364;2023-02-20T16:26:30;9.10;99.90
5041;DHT22;2539;52.568;13.364;2023-02-20T16:29:00;9.10;99.90
5041;DHT22;2539;52.568;13.364;2023-02-20T16:34:26;9.00;99.90
5041;DHT22;2539;52.568;13.364;2023-02-20T16:36:53;9.00;99.90
5041;DHT22;2539;52.568;13.364;2023-02-20T16:39:19;9.00;99.90
5041;DHT22;2539;52.568;13.364;2023-02-20T16:41:45;8.90;99.90
5041;DHT22;2539;52.568;13.364;2023-02-20T16:44:14;8.90;99.90
5041;DHT22;2539;52.568;13.364;2023-02-20T16:46:43;8.90;99.90
5041;DHT22;2539;52.568;13.364;2023-02-20T16:49:10;8.90;99.90
5041;DHT22;2539;52.568;13.364;2023-02-20T16:51:37;8.80;99.90
5041;DHT22;2539;52.568;13.364;2023-02-20T16:54:03;8.80;99.90
5041;DHT22;2539;52.568;13.364;2023-02-20T16:56:30;8.80;99.90
5041;DHT22;2539;52.568;13.364;2023-02-20T16:58:57;8.80;99.90
5041;DHT22;2539;52.568;13.364;2023-02-20T17:01:24;8.80;99.90
5041;DHT22;2539;52.568;13.364;2023-02-20T17:03:50;8.80;99.90
5041;DHT22;2539;52.568;13.364;2023-02-20T17:06:16;8.80;99.90
5041;DHT22;2539;52.568;13.364;2023-02-20T17:08:45;8.80;99.90
5041;DHT22;2539;52.568;13.364;2023-02-20T17:11:11;8.80;99.90
5041;DHT22;2539;52.568;13.364;2023-02-20T17:13:37;8.80;99.90
5041;DHT22;2539;52.568;13.364;2023-02-20T17:16:04;8.80;99.90
5041;DHT22;2539;52.568;13.364;2023-02-20T17:18:30;8.80;99.90
5041;DHT22;2539;52.568;13.364;2023-02-20T17:20:57;8.80;99.90
5041;DHT22;2539;52.568;13.364;2023-02-20T17:23:23;8.70;99.90
5041;DHT22;2539;52.568;13.364;2023-02-20T17:25:49;8.70;99.90
5041;DHT22;2539;52.568;13.364;2023-02-20T17:28:16;8.80;99.90
5041;DHT22;2539;52.568;13.364;2023-02-20T17:30:42;8.80;99.90
5041;DHT22;2539;52.568;13.364;2023-02-20T17:33:08;8.70;99.90
5041;DHT22;2539;52.568;13.364;2023-02-20T17:35:35;8.70;99.90
5041;DHT22;2539;52.568;13.364;2023-02-20T17:38:01;8.70;99.90
5041;DHT22;2539;52.568;13.364;2023-02-20T17:40:26;8.70;99.90
5041;DHT22;2539;52.568;13.364;2023-02-20T17:42:52;8.70;99.90
5041;DHT22;2539;52.568;13.364;2023-02-20T17:45:18;8.60;99.90
5041;DHT22;2539;52.568;13.364;2023-02-20T17:47:43;8.60;99.90
5041;DHT22;2539;52.568;13.364;2023-02-20T17:50:10;8.50;99.90